createdAt,value
2023-01-18T00:01:43.442Z,1.85
2023-01-18T00:04:10.250Z,1.52
2023-01-18T00:06:37.066Z,1.45
2023-01-18T00:09:03.842Z,1.48
2023-01-18T00:11:30.601Z,1.75
2023-01-18T00:13:57.500Z,1.58
2023-01-18T00:16:25.924Z,1.10
2023-01-18T00:18:59.296Z,1.20
2023-01-18T00:23:55.076Z,1.38
2023-01-18T00:26:21.803Z,1.30
2023-01-18T00:28:48.575Z,1.13
2023-01-18T00:31:19.611Z,1.50
2023-01-18T00:33:47.339Z,1.52
2023-01-18T00:36:14.299Z,1.20
2023-01-18T00:38:41.127Z,0.93
2023-01-18T00:41:07.904Z,1.27
2023-01-18T00:43:40.593Z,1.60
2023-01-18T00:46:18.158Z,2.00
2023-01-18T00:48:44.980Z,2.25
2023-01-18T00:51:14.095Z,1.95
2023-01-18T00:53:41.042Z,2.42
2023-01-18T00:56:08.795Z,1.80
2023-01-18T00:58:37.371Z,2.33
2023-01-18T01:01:05.238Z,1.77
2023-01-18T01:03:54.834Z,1.77
2023-01-18T01:06:45.184Z,1.90
2023-01-18T01:09:20.648Z,1.65
2023-01-18T01:12:06.794Z,1.77
2023-01-18T01:14:53.566Z,1.50
2023-01-18T01:17:39.088Z,1.88
2023-01-18T01:20:25.548Z,1.52
2023-01-18T01:23:11.151Z,1.20
2023-01-18T01:25:57.941Z,1.10
2023-01-18T01:28:24.965Z,1.23
2023-01-18T01:30:51.782Z,1.38
2023-01-18T01:33:19.364Z,1.20
2023-01-18T01:35:46.156Z,1.00
2023-01-18T01:38:12.947Z,1.08
2023-01-18T01:40:39.741Z,1.00
2023-01-18T01:43:11.833Z,1.00
2023-01-18T01:45:38.622Z,1.20
2023-01-18T01:48:05.598Z,1.00
2023-01-18T01:50:35.814Z,1.33
2023-01-18T01:53:02.658Z,1.02
2023-01-18T01:55:32.203Z,1.20
2023-01-18T01:58:16.754Z,1.00
2023-01-18T02:00:43.862Z,1.20
2023-01-18T02:03:12.638Z,0.90
2023-01-18T02:05:47.473Z,1.23
2023-01-18T02:08:22.138Z,0.88
2023-01-18T02:10:52.143Z,0.93
2023-01-18T02:13:19.872Z,1.10
2023-01-18T02:15:46.594Z,0.70
2023-01-18T02:18:24.920Z,1.30
2023-01-18T02:21:17.723Z,1.13
2023-01-18T02:24:06.466Z,1.33
2023-01-18T02:27:28.168Z,1.10
2023-01-18T02:30:22.096Z,1.10
2023-01-18T02:33:05.654Z,1.02
2023-01-18T02:38:47.473Z,1.08
2023-01-18T02:41:54.870Z,0.90
2023-01-18T02:44:55.775Z,1.05
2023-01-18T02:47:23.435Z,0.98
2023-01-18T02:49:50.207Z,1.00
2023-01-18T02:52:39.417Z,1.20
2023-01-18T02:55:07.468Z,1.00
2023-01-18T02:57:34.227Z,0.98
2023-01-18T03:00:00.988Z,0.98
2023-01-18T03:02:27.757Z,1.08
2023-01-18T03:04:54.633Z,1.02
2023-01-18T03:07:35.367Z,0.95
2023-01-18T03:10:06.704Z,1.35
2023-01-18T03:12:48.545Z,1.10
2023-01-18T03:15:27.298Z,0.85
2023-01-18T03:17:55.300Z,0.90
2023-01-18T03:20:25.909Z,1.08
2023-01-18T03:23:23.301Z,1.48
2023-01-18T03:25:51.489Z,1.30
2023-01-18T03:28:52.762Z,1.10
2023-01-18T03:31:47.318Z,1.35
2023-01-18T03:34:34.136Z,1.20
2023-01-18T03:37:02.904Z,1.33
2023-01-18T03:39:54.047Z,1.10
2023-01-18T03:42:26.534Z,1.50
2023-01-18T03:44:59.850Z,1.85
2023-01-18T03:49:53.447Z,1.05
2023-01-18T03:52:31.431Z,1.38
2023-01-18T03:55:22.289Z,1.42
2023-01-18T03:57:55.675Z,1.27
2023-01-18T04:00:22.555Z,1.17
2023-01-18T04:02:49.585Z,0.98
2023-01-18T04:05:16.663Z,1.42
2023-01-18T04:07:43.663Z,1.25
2023-01-18T04:10:11.090Z,1.42
2023-01-18T04:12:37.845Z,1.20
2023-01-18T04:15:05.041Z,1.67
2023-01-18T04:17:31.826Z,2.10
2023-01-18T04:19:58.623Z,2.20
2023-01-18T04:22:25.380Z,2.13
2023-01-18T04:24:52.319Z,1.75
2023-01-18T04:27:19.095Z,1.98
2023-01-18T04:29:45.868Z,2.13
2023-01-18T04:32:12.620Z,2.10
2023-01-18T04:34:39.401Z,2.25
2023-01-18T04:37:06.152Z,2.15
2023-01-18T04:39:32.956Z,2.03
2023-01-18T04:41:59.735Z,2.20
2023-01-18T04:44:26.549Z,2.30
2023-01-18T04:46:53.402Z,1.70
2023-01-18T04:49:20.193Z,2.42
2023-01-18T04:51:47.220Z,2.42
2023-01-18T04:54:15.777Z,2.40
2023-01-18T04:56:42.515Z,2.50
2023-01-18T04:59:13.462Z,2.83
2023-01-18T05:01:40.310Z,3.08
2023-01-18T05:04:07.093Z,3.00
2023-01-18T05:06:33.864Z,3.03
2023-01-18T05:09:00.614Z,3.67
2023-01-18T05:11:27.401Z,3.75
2023-01-18T05:13:54.214Z,3.90
2023-01-18T05:16:22.229Z,4.30
2023-01-18T05:18:49.026Z,3.50
2023-01-18T05:21:15.969Z,3.22
2023-01-18T05:23:42.731Z,4.40
2023-01-18T05:26:17.976Z,5.40
2023-01-18T05:28:44.781Z,3.53
2023-01-18T05:31:12.251Z,3.33
2023-01-18T05:33:39.127Z,3.22
2023-01-18T05:36:06.261Z,2.17
2023-01-18T05:38:33.070Z,2.30
2023-01-18T05:40:59.865Z,2.30
2023-01-18T05:43:29.463Z,1.80
2023-01-18T05:45:56.495Z,1.70
2023-01-18T05:48:24.107Z,1.73
2023-01-18T05:50:50.904Z,1.50
2023-01-18T05:53:19.475Z,1.60
2023-01-18T05:55:59.919Z,1.10
2023-01-18T05:58:27.155Z,1.13
2023-01-18T06:00:55.207Z,1.48
2023-01-18T06:03:22.523Z,1.17
2023-01-18T06:05:49.352Z,2.08
2023-01-18T06:09:07.373Z,2.00
2023-01-18T06:11:34.191Z,1.52
2023-01-18T06:18:28.480Z,1.83
2023-01-18T06:20:58.567Z,2.08
2023-01-18T06:23:26.652Z,2.70
2023-01-18T06:25:53.600Z,2.28
2023-01-18T06:28:21.051Z,2.42
2023-01-18T06:30:47.987Z,3.17
2023-01-18T06:33:15.209Z,2.88
2023-01-18T06:35:43.265Z,3.63
2023-01-18T06:38:10.696Z,2.92
2023-01-18T06:40:37.600Z,3.40
2023-01-18T06:43:04.453Z,3.65
2023-01-18T06:45:31.278Z,3.45
2023-01-18T06:47:58.063Z,3.53
2023-01-18T06:50:24.842Z,3.78
2023-01-18T06:52:51.792Z,3.75
2023-01-18T06:55:19.860Z,4.10
2023-01-18T06:57:47.797Z,9.60
2023-01-18T07:00:15.014Z,7.63
2023-01-18T07:02:41.820Z,5.65
2023-01-18T07:05:09.016Z,4.82
2023-01-18T07:07:35.929Z,3.90
2023-01-18T07:10:02.777Z,4.72
2023-01-18T07:12:29.588Z,3.95
2023-01-18T07:14:57.542Z,4.10
2023-01-18T07:17:24.338Z,3.70
2023-01-18T07:19:51.174Z,4.00
2023-01-18T07:22:18.015Z,3.60
2023-01-18T07:24:45.668Z,4.10
2023-01-18T07:27:12.560Z,3.35
2023-01-18T07:29:39.377Z,4.10
2023-01-18T07:32:06.288Z,4.63
2023-01-18T07:34:33.271Z,3.58
2023-01-18T07:37:01.363Z,4.07
2023-01-18T07:39:28.167Z,3.50
2023-01-18T07:41:54.954Z,3.70
2023-01-18T07:44:23.165Z,3.30
2023-01-18T07:46:49.988Z,3.70
2023-01-18T07:49:16.795Z,4.32
2023-01-18T07:51:43.622Z,4.45
2023-01-18T07:54:10.400Z,5.80
2023-01-18T07:56:37.713Z,4.75
2023-01-18T07:59:04.763Z,4.78
2023-01-18T08:01:31.688Z,4.55
2023-01-18T08:03:58.562Z,5.18
2023-01-18T08:06:26.232Z,5.80
2023-01-18T08:08:54.733Z,5.18
2023-01-18T08:11:21.588Z,4.90
2023-01-18T08:13:49.356Z,5.20
2023-01-18T08:16:16.344Z,5.53
2023-01-18T08:18:45.221Z,5.10
2023-01-18T08:21:13.171Z,4.88
2023-01-18T08:23:40.255Z,5.55
2023-01-18T08:26:07.216Z,5.38
2023-01-18T08:28:34.517Z,6.82
2023-01-18T08:31:06.512Z,6.20
2023-01-18T08:33:43.042Z,6.15
2023-01-18T08:36:11.407Z,6.22
2023-01-18T08:38:38.340Z,6.88
2023-01-18T08:41:05.232Z,7.18
2023-01-18T08:43:32.041Z,6.88
2023-01-18T08:45:59.334Z,7.10
2023-01-18T08:48:26.239Z,5.82
2023-01-18T08:50:53.032Z,5.93
2023-01-18T08:53:19.877Z,6.47
2023-01-18T08:55:46.678Z,6.95
2023-01-18T08:58:13.839Z,8.18
2023-01-18T09:00:40.691Z,7.85
2023-01-18T09:03:07.593Z,6.13
2023-01-18T09:05:35.749Z,7.95
2023-01-18T09:08:02.638Z,7.93
2023-01-18T09:10:29.568Z,8.27
2023-01-18T09:12:56.885Z,8.07
2023-01-18T09:15:23.890Z,8.65
2023-01-18T09:17:50.683Z,8.45
2023-01-18T09:20:19.068Z,9.00
2023-01-18T09:22:47.778Z,11.32
2023-01-18T09:25:14.871Z,15.70
2023-01-18T09:27:42.607Z,28.95
2023-01-18T09:30:10.009Z,11.88
2023-01-18T09:32:37.014Z,14.27
2023-01-18T09:35:04.034Z,9.25
2023-01-18T09:37:31.532Z,8.38
2023-01-18T09:40:00.288Z,9.05
2023-01-18T09:42:30.196Z,9.63
2023-01-18T09:44:58.775Z,9.35
2023-01-18T09:47:36.792Z,9.23
2023-01-18T09:50:14.515Z,14.68
2023-01-18T09:52:44.190Z,7.75
2023-01-18T09:55:16.667Z,8.95
2023-01-18T09:57:49.883Z,8.60
2023-01-18T10:00:27.854Z,7.90
2023-01-18T10:03:01.271Z,6.43
2023-01-18T10:05:40.495Z,8.60
2023-01-18T10:08:13.518Z,10.88
2023-01-18T10:10:51.624Z,10.35
2023-01-18T10:13:37.907Z,14.48
2023-01-18T10:16:09.685Z,13.57
2023-01-18T10:18:47.009Z,12.43
2023-01-18T10:21:41.859Z,12.85
2023-01-18T10:24:26.364Z,14.60
2023-01-18T10:26:55.875Z,11.95
2023-01-18T10:29:38.920Z,10.93
2023-01-18T10:32:10.770Z,14.35
2023-01-18T10:34:41.842Z,14.00
2023-01-18T10:37:23.276Z,10.73
2023-01-18T10:39:52.156Z,16.65
2023-01-18T10:42:29.605Z,16.27
2023-01-18T10:44:57.181Z,11.13
2023-01-18T10:47:23.983Z,10.60
2023-01-18T10:49:51.164Z,11.98
2023-01-18T10:52:27.662Z,13.25
2023-01-18T10:55:01.246Z,15.20
2023-01-18T10:57:35.746Z,12.00
2023-01-18T11:00:05.940Z,11.07
2023-01-18T11:02:36.491Z,11.02
2023-01-18T11:05:44.190Z,10.65
2023-01-18T11:08:22.681Z,9.98
2023-01-18T11:11:05.776Z,10.05
2023-01-18T11:13:45.669Z,9.05
2023-01-18T11:16:17.662Z,10.70
2023-01-18T11:19:05.584Z,8.70
2023-01-18T11:21:43.960Z,8.70
2023-01-18T11:24:16.910Z,11.00
2023-01-18T11:26:57.657Z,8.95
2023-01-18T11:29:28.470Z,8.55
2023-01-18T11:31:55.794Z,8.15
2023-01-18T11:34:42.669Z,7.82
2023-01-18T11:37:38.975Z,6.82
2023-01-18T11:40:27.804Z,7.70
2023-01-18T11:43:11.745Z,9.27
2023-01-18T11:46:00.650Z,8.70
2023-01-18T11:48:38.616Z,8.73
2023-01-18T11:51:24.619Z,9.30
2023-01-18T11:54:09.987Z,8.52
2023-01-18T11:56:39.857Z,8.05
2023-01-18T11:59:13.594Z,7.80
2023-01-18T12:01:50.840Z,8.65
2023-01-18T12:04:42.869Z,7.55
2023-01-18T12:07:28.586Z,7.35
2023-01-18T12:09:59.861Z,6.60
2023-01-18T12:12:54.938Z,6.65
2023-01-18T12:15:21.743Z,7.00
2023-01-18T12:18:13.930Z,7.60
2023-01-18T12:20:58.306Z,5.18
2023-01-18T12:23:47.791Z,4.28
2023-01-18T12:26:17.988Z,4.75
2023-01-18T12:29:17.058Z,4.55
2023-01-18T12:31:46.806Z,5.68
2023-01-18T12:34:20.601Z,4.22
2023-01-18T12:36:55.493Z,4.88
2023-01-18T12:39:39.859Z,4.50
2023-01-18T12:42:15.410Z,4.07
2023-01-18T12:44:49.529Z,3.78
2023-01-18T12:47:36.179Z,3.83
2023-01-18T12:50:07.309Z,3.75
2023-01-18T12:52:38.571Z,4.07
2023-01-18T12:55:06.163Z,4.13
2023-01-18T12:57:33.466Z,4.10
2023-01-18T13:00:09.004Z,3.28
2023-01-18T13:02:45.737Z,3.88
2023-01-18T13:05:21.783Z,4.32
2023-01-18T13:08:04.561Z,4.18
2023-01-18T13:10:31.397Z,4.28
2023-01-18T13:12:58.183Z,4.10
2023-01-18T13:15:55.197Z,6.95
2023-01-18T13:18:33.437Z,5.20
2023-01-18T13:21:11.553Z,8.40
2023-01-18T13:24:12.280Z,7.38
2023-01-18T13:26:40.185Z,9.13
2023-01-18T13:29:10.161Z,9.38
2023-01-18T13:31:37.410Z,8.32
2023-01-18T13:34:04.546Z,10.23
2023-01-18T13:36:44.822Z,6.50
2023-01-18T13:39:15.224Z,5.63
2023-01-18T13:42:07.941Z,5.35
2023-01-18T13:44:43.640Z,5.60
2023-01-18T13:47:42.798Z,6.18
2023-01-18T13:50:28.543Z,8.35
2023-01-18T13:53:13.408Z,6.32
2023-01-18T13:55:55.359Z,12.63
2023-01-18T13:58:25.634Z,5.57
2023-01-18T14:00:53.154Z,8.95
2023-01-18T14:03:22.321Z,9.07
2023-01-18T14:05:49.386Z,6.15
2023-01-18T14:08:20.958Z,6.10
2023-01-18T14:10:49.168Z,5.43
2023-01-18T14:13:17.827Z,8.05
2023-01-18T14:15:49.134Z,5.40
2023-01-18T14:18:27.042Z,6.10
2023-01-18T14:21:20.077Z,5.75
2023-01-18T14:24:17.785Z,6.15
2023-01-18T14:26:44.579Z,6.57
2023-01-18T14:29:12.379Z,6.95
2023-01-18T14:31:42.459Z,6.30
2023-01-18T14:34:25.458Z,9.07
2023-01-18T14:36:52.703Z,7.25
2023-01-18T14:39:21.618Z,7.57
2023-01-18T14:41:51.580Z,10.48
2023-01-18T14:44:23.041Z,8.82
2023-01-18T14:46:51.252Z,8.32
2023-01-18T14:49:27.011Z,8.35
2023-01-18T14:51:54.255Z,11.00
2023-01-18T14:54:21.393Z,9.85
2023-01-18T14:56:48.152Z,7.65
2023-01-18T14:59:27.549Z,8.20
2023-01-18T15:01:56.657Z,8.18
2023-01-18T15:04:31.162Z,7.53
2023-01-18T15:07:06.890Z,8.73
2023-01-18T15:09:36.084Z,11.27
2023-01-18T15:12:07.915Z,22.02
2023-01-18T15:14:36.860Z,13.95
2023-01-18T15:17:06.862Z,11.48
2023-01-18T15:19:40.176Z,15.65
2023-01-18T15:22:08.485Z,19.02
2023-01-18T15:24:39.902Z,16.33
2023-01-18T15:27:07.074Z,11.98
2023-01-18T15:29:35.207Z,13.70
2023-01-18T15:32:13.107Z,15.50
2023-01-18T15:34:42.618Z,12.38
2023-01-18T15:37:18.872Z,15.38
2023-01-18T15:40:21.619Z,14.13
2023-01-18T15:42:56.711Z,12.38
2023-01-18T15:45:31.134Z,15.27
2023-01-18T15:48:02.690Z,15.50
2023-01-18T15:50:36.267Z,16.40
2023-01-18T15:53:06.749Z,16.73
2023-01-18T15:55:38.671Z,17.85
2023-01-18T15:58:10.977Z,18.70
2023-01-18T16:00:58.872Z,23.10
2023-01-18T16:03:27.865Z,37.15
2023-01-18T16:05:59.892Z,48.97
2023-01-18T16:08:26.827Z,20.20
2023-01-18T16:10:55.235Z,16.30
2023-01-18T16:13:28.217Z,16.33
2023-01-18T16:16:14.039Z,15.85
2023-01-18T16:18:49.998Z,17.20
2023-01-18T16:21:28.625Z,16.63
2023-01-18T16:23:56.466Z,15.23
2023-01-18T16:26:26.678Z,16.55
2023-01-18T16:28:53.526Z,16.45
2023-01-18T16:31:22.890Z,15.63
2023-01-18T16:33:49.930Z,15.93
2023-01-18T16:36:18.565Z,16.13
2023-01-18T16:38:45.546Z,15.80
2023-01-18T16:41:12.826Z,15.60
2023-01-18T16:43:39.656Z,19.30
2023-01-18T16:46:06.713Z,23.13
2023-01-18T16:48:34.122Z,22.77
2023-01-18T16:51:02.378Z,28.85
2023-01-18T16:53:29.320Z,29.90
2023-01-18T16:55:56.748Z,22.50
2023-01-18T16:58:24.099Z,19.48
2023-01-18T17:00:54.988Z,18.65
2023-01-18T17:03:21.966Z,19.50
2023-01-18T17:05:48.794Z,27.02
2023-01-18T17:08:15.730Z,23.63
2023-01-18T17:10:46.996Z,19.50
2023-01-18T17:13:13.859Z,17.30
2023-01-18T17:15:45.321Z,16.45
2023-01-18T17:18:14.913Z,16.35
2023-01-18T17:20:41.764Z,18.00
2023-01-18T17:23:08.619Z,20.70
2023-01-18T17:25:36.600Z,22.63
2023-01-18T17:28:03.585Z,22.60
2023-01-18T17:30:30.574Z,21.15
2023-01-18T17:32:57.727Z,19.38
2023-01-18T17:35:24.980Z,24.30
2023-01-18T17:38:00.644Z,21.80
2023-01-18T17:40:40.080Z,18.50
2023-01-18T17:43:28.468Z,19.00
2023-01-18T17:46:02.416Z,20.20
2023-01-18T17:48:29.316Z,18.70
2023-01-18T17:50:56.118Z,18.52
2023-01-18T17:53:22.950Z,18.77
2023-01-18T17:55:50.068Z,21.02
2023-01-18T17:58:16.866Z,18.95
2023-01-18T18:00:43.704Z,18.88
2023-01-18T18:03:10.590Z,18.25
2023-01-18T18:05:37.418Z,19.20
2023-01-18T18:08:04.335Z,18.98
2023-01-18T18:10:31.237Z,19.10
2023-01-18T18:12:59.549Z,17.67
2023-01-18T18:15:26.724Z,17.95
2023-01-18T18:17:53.490Z,19.10
2023-01-18T18:20:22.151Z,19.90
2023-01-18T18:22:49.632Z,21.92
2023-01-18T18:25:16.645Z,22.02
2023-01-18T18:27:46.405Z,23.15
2023-01-18T18:30:14.784Z,24.15
2023-01-18T18:32:41.683Z,23.65
2023-01-18T18:35:23.988Z,24.40
2023-01-18T18:40:19.417Z,23.23
2023-01-18T18:42:56.503Z,24.00
2023-01-18T18:45:28.205Z,25.65
2023-01-18T18:47:55.055Z,26.17
2023-01-18T18:50:21.850Z,28.50
2023-01-18T18:52:49.241Z,27.13
2023-01-18T18:55:16.171Z,26.25
2023-01-18T18:57:42.969Z,26.50
2023-01-18T19:00:10.455Z,26.05
2023-01-18T19:02:37.475Z,25.17
2023-01-18T19:05:05.105Z,22.83
2023-01-18T19:07:33.719Z,26.00
2023-01-18T19:10:00.590Z,25.83
2023-01-18T19:12:27.385Z,25.48
2023-01-18T19:14:54.190Z,23.42
2023-01-18T19:17:29.818Z,24.00
2023-01-18T19:19:57.906Z,25.17
2023-01-18T19:22:24.761Z,19.58
2023-01-18T19:24:51.589Z,22.38
2023-01-18T19:27:18.514Z,21.23
2023-01-18T19:29:45.412Z,21.52
2023-01-18T19:32:12.222Z,21.00
2023-01-18T19:34:39.858Z,19.58
2023-01-18T19:37:06.974Z,19.98
2023-01-18T19:39:34.973Z,20.38
2023-01-18T19:42:02.428Z,20.42
2023-01-18T19:44:29.741Z,20.25
2023-01-18T19:46:57.045Z,18.48
2023-01-18T19:49:26.475Z,18.65
2023-01-18T19:51:54.487Z,20.23
2023-01-18T19:54:21.818Z,18.77
2023-01-18T19:56:48.689Z,17.88
2023-01-18T19:59:15.578Z,19.88
2023-01-18T20:01:42.608Z,18.63
2023-01-18T20:04:09.649Z,18.17
2023-01-18T20:06:38.371Z,19.77
2023-01-18T20:09:17.731Z,19.73
2023-01-18T20:11:45.772Z,19.13
2023-01-18T20:14:12.572Z,18.10
2023-01-18T20:16:39.458Z,20.48
2023-01-18T20:19:06.358Z,20.27
2023-01-18T20:21:33.270Z,21.20
2023-01-18T20:24:00.992Z,21.05
2023-01-18T20:26:36.754Z,18.95
2023-01-18T20:29:06.935Z,19.83
2023-01-18T20:31:36.457Z,19.50
2023-01-18T20:34:04.096Z,19.95
2023-01-18T20:36:31.057Z,21.23
2023-01-18T20:38:57.869Z,21.42
2023-01-18T20:45:41.603Z,19.73
2023-01-18T20:48:08.467Z,19.48
2023-01-18T20:50:35.284Z,25.33
2023-01-18T20:53:02.330Z,22.38
2023-01-18T20:55:29.348Z,21.55
2023-01-18T20:57:56.128Z,19.38
2023-01-18T21:00:23.780Z,21.25
2023-01-18T21:02:50.625Z,19.38
2023-01-18T21:05:17.546Z,26.08
2023-01-18T21:07:44.455Z,19.83
2023-01-18T21:10:11.603Z,21.48
2023-01-18T21:12:38.394Z,19.17
2023-01-18T21:15:08.970Z,20.67
2023-01-18T21:17:36.177Z,21.42
2023-01-18T21:20:03.297Z,19.83
2023-01-18T21:22:30.051Z,21.05
2023-01-18T21:24:58.038Z,20.40
2023-01-18T21:27:26.603Z,19.63
2023-01-18T21:29:54.306Z,20.27
2023-01-18T21:32:22.696Z,20.08
2023-01-18T21:34:49.561Z,19.40
2023-01-18T21:37:16.344Z,19.48
2023-01-18T21:39:43.161Z,21.15
2023-01-18T21:42:29.788Z,22.30
2023-01-18T21:45:15.029Z,20.10
2023-01-18T21:47:41.803Z,20.38
2023-01-18T21:50:27.488Z,21.23
2023-01-18T21:53:12.878Z,20.80
2023-01-18T21:55:40.028Z,20.15
2023-01-18T21:58:25.716Z,19.38
2023-01-18T22:00:52.612Z,16.67
2023-01-18T22:03:20.281Z,19.65
2023-01-18T22:05:47.464Z,19.35
2023-01-18T22:08:14.381Z,18.92
2023-01-18T22:10:41.225Z,19.42
2023-01-18T22:13:07.952Z,17.73
2023-01-18T22:15:35.121Z,18.98
2023-01-18T22:18:02.314Z,17.80
2023-01-18T22:20:30.905Z,19.85
2023-01-18T22:22:58.350Z,18.10
2023-01-18T22:25:25.125Z,17.75
2023-01-18T22:27:51.861Z,18.02
2023-01-18T22:30:18.847Z,17.10
2023-01-18T22:32:45.685Z,17.23
2023-01-18T22:35:12.458Z,18.08
2023-01-18T22:37:39.271Z,16.73
2023-01-18T22:40:06.938Z,17.10
2023-01-18T22:42:35.340Z,19.20
2023-01-18T22:45:02.242Z,17.77
2023-01-18T22:47:29.749Z,16.38
2023-01-18T22:49:56.501Z,18.58
2023-01-18T22:52:23.376Z,15.93
2023-01-18T22:54:50.205Z,16.10
2023-01-18T22:57:16.981Z,16.15
2023-01-18T22:59:43.867Z,15.32
2023-01-18T23:02:10.671Z,16.00
2023-01-18T23:04:37.829Z,16.85
2023-01-18T23:07:04.655Z,15.65
2023-01-18T23:09:31.449Z,15.90
2023-01-18T23:11:58.207Z,14.40
2023-01-18T23:14:43.576Z,15.25
2023-01-18T23:17:31.986Z,16.15
2023-01-18T23:19:58.903Z,16.55
2023-01-18T23:22:25.679Z,15.32
2023-01-18T23:24:52.468Z,17.20
2023-01-18T23:27:19.362Z,15.15
2023-01-18T23:29:50.172Z,15.30
2023-01-18T23:32:17.000Z,15.43
2023-01-18T23:34:44.185Z,16.48
2023-01-18T23:37:10.968Z,15.82
2023-01-18T23:39:56.568Z,15.93
2023-01-18T23:42:41.802Z,16.40
2023-01-18T23:45:29.016Z,15.70
2023-01-18T23:48:14.527Z,16.15
2023-01-18T23:50:59.746Z,17.02
2023-01-18T23:53:45.364Z,15.25
2023-01-18T23:56:12.110Z,15.30
2023-01-18T23:58:39.959Z,15.85
